Mount Forest, Canada
Current Conditions -  °F | °C
As of 12:50 PM on Monday 24 Nov 2014 (Local Time) from CYKF Reporting Station
Light Rain Light Rain  
Wind Chill: 55°   Ceiling: 3400
Heat Index: 55°   Visibility: 9mi
Dew Point: 52°   Wind: 26mph
Humidity: 88%   Direction: 220°SW
Pressure: 29.16"   Gusts: 40mph
Location:  43.98°N, 80.73°W
Report Text: CYKF 241750Z AUTO 22023G35KT 9SM -RA SCT021 BKN034 BKN050 OVC075 13/11 A2916 RMK PRESRR PCPN 5.6MM PAST HR SLP875 DENSITY ALT 1800FT
Loading
Personal Weather Stations






























Interactive Weather Map New forecast layout! Learn more

10-Day Weather Forecast

Advertisements
Track Severe Weather on mobile